Time;durP1;ratioP1;P1;durP2;ratioP2;P2;SDS_P1;SDS_P2;PMS_P1;PMS_P2;Temp;Humidity;BMP_temperature;BMP_pressure;BME280_temperature;BME280_humidity;BME280_pressure;Samples;Min_cycle;Max_cycle;Signal;HPM_P1;HPM_P2
2023/07/14 00:00:13;;;;;;;5.32;2.22;;;;;;;;;;10437351;28;20075;-74
2023/07/14 00:05:19;;;;;;;4.38;2.30;;;;;;;;;;10438970;28;20040;-75
2023/07/14 00:10:23;;;;;;;5.25;2.00;;;;;;;;;;10439474;28;20043;-76
2023/07/14 00:15:25;;;;;;;5.25;2.47;;;;;;;;;;10440555;28;20069;-74
2023/07/14 00:20:32;;;;;;;3.83;2.30;;;;;;;;;;10435837;28;20045;-74
2023/07/14 00:25:35;;;;;;;4.88;1.90;;;;;;;;;;10435569;28;20315;-73
2023/07/14 00:30:38;;;;;;;3.85;2.05;;;;;;;;;;10430670;28;20037;-75
2023/07/14 00:35:42;;;;;;;3.05;1.75;;;;;;;;;;10439132;28;20074;-74
2023/07/14 00:40:45;;;;;;;4.00;2.33;;;;;;;;;;10435931;28;20108;-74
2023/07/14 00:45:49;;;;;;;4.72;2.03;;;;;;;;;;10441674;28;20041;-75
2023/07/14 00:50:51;;;;;;;;;;;;;;;;;;10440314;28;20037;-75
2023/07/14 00:55:57;;;;;;;4.85;2.25;;;;;;;;;;10435973;28;19981;-76
2023/07/14 01:01:09;;;;;;;3.83;2.05;;;;;;;;;;10430980;28;20477;-76
2023/07/14 01:06:16;;;;;;;4.82;2.38;;;;;;;;;;10439651;28;20050;-76
2023/07/14 01:11:21;;;;;;;4.80;2.40;;;;;;;;;;10447990;28;20360;-75
2023/07/14 01:16:24;;;;;;;6.57;2.20;;;;;;;;;;10440147;28;20112;-76
2023/07/14 01:21:28;;;;;;;7.78;2.60;;;;;;;;;;10435827;28;20490;-76
2023/07/14 01:27:02;;;;;;;5.00;2.38;;;;;;;;;;10434396;28;20144;-76
2023/07/14 01:32:14;;;;;;;4.45;2.53;;;;;;;;;;10352252;28;20545;-76
2023/07/14 01:37:19;;;;;;;4.65;2.25;;;;;;;;;;10436335;28;20441;-76
2023/07/14 01:42:23;;;;;;;3.38;1.42;;;;;;;;;;10440640;28;20048;-76
2023/07/14 01:47:28;;;;;;;4.82;2.45;;;;;;;;;;10436725;28;20055;-76
2023/07/14 01:52:32;;;;;;;2.72;1.90;;;;;;;;;;10438501;28;20036;-77
2023/07/14 01:57:36;;;;;;;5.13;2.47;;;;;;;;;;10440629;28;20108;-76
2023/07/14 02:02:41;;;;;;;3.15;2.05;;;;;;;;;;10430651;28;20099;-76
2023/07/14 02:07:44;;;;;;;5.20;2.10;;;;;;;;;;10434071;28;20079;-76
2023/07/14 02:12:47;;;;;;;4.73;2.20;;;;;;;;;;10437361;28;20123;-77
2023/07/14 02:17:52;;;;;;;4.28;2.20;;;;;;;;;;10446044;28;20171;-77
2023/07/14 02:22:56;;;;;;;6.40;2.53;;;;;;;;;;10445818;28;20486;-76
2023/07/14 02:27:59;;;;;;;4.25;2.30;;;;;;;;;;10440623;28;20478;-76
2023/07/14 02:33:06;;;;;;;6.78;2.30;;;;;;;;;;10439653;28;20120;-77
2023/07/14 02:38:11;;;;;;;4.28;2.47;;;;;;;;;;10450961;28;20048;-76
2023/07/14 02:43:15;;;;;;;4.55;2.70;;;;;;;;;;10446778;28;20044;-76
2023/07/14 02:48:22;;;;;;;7.00;2.60;;;;;;;;;;10442751;28;20075;-76
2023/07/14 02:53:25;;;;;;;3.95;2.30;;;;;;;;;;10450837;28;20086;-76
2023/07/14 02:58:28;;;;;;;4.78;2.35;;;;;;;;;;10443142;28;20047;-76
2023/07/14 03:03:33;;;;;;;4.33;2.70;;;;;;;;;;10449033;28;20588;-75
2023/07/14 03:08:36;;;;;;;3.85;2.08;;;;;;;;;;10448094;28;20069;-75
2023/07/14 03:13:39;;;;;;;5.63;2.47;;;;;;;;;;10448641;28;20045;-76
2023/07/14 03:18:43;;;;;;;2.10;1.33;;;;;;;;;;10447935;28;20053;-77
2023/07/14 03:23:45;;;;;;;5.13;2.20;;;;;;;;;;10437310;28;20043;-75
2023/07/14 03:28:48;;;;;;;7.20;1.63;;;;;;;;;;10442760;28;20052;-76
2023/07/14 03:33:52;;;;;;;4.47;1.73;;;;;;;;;;10435012;28;20522;-76
2023/07/14 03:39:10;;;;;;;4.45;2.17;;;;;;;;;;10444903;28;20584;-75
2023/07/14 03:44:12;;;;;;;8.60;2.55;;;;;;;;;;10441347;28;20148;-75
2023/07/14 03:49:16;;;;;;;4.05;1.98;;;;;;;;;;10437408;28;20517;-74
2023/07/14 03:54:19;;;;;;;3.70;1.92;;;;;;;;;;10445348;28;20135;-75
2023/07/14 03:59:22;;;;;;;6.00;2.15;;;;;;;;;;10439445;28;20063;-75
2023/07/14 04:04:26;;;;;;;3.50;1.80;;;;;;;;;;10437083;28;20043;-76
2023/07/14 04:09:29;;;;;;;6.10;2.00;;;;;;;;;;10439620;28;20368;-75
2023/07/14 04:14:32;;;;;;;2.50;1.90;;;;;;;;;;10436143;28;20037;-75
2023/07/14 04:19:36;;;;;;;3.33;2.05;;;;;;;;;;10439984;28;20498;-74
2023/07/14 04:24:39;;;;;;;5.07;2.63;;;;;;;;;;10441570;28;20052;-75
2023/07/14 04:29:41;;;;;;;6.18;2.15;;;;;;;;;;10444305;28;20065;-76
2023/07/14 04:34:46;;;;;;;2.65;2.00;;;;;;;;;;10436829;28;20033;-76
2023/07/14 04:39:49;;;;;;;4.32;2.13;;;;;;;;;;10435238;28;20072;-75
2023/07/14 04:44:52;;;;;;;1.10;0.95;;;;;;;;;;10441262;28;20068;-74
2023/07/14 04:49:56;;;;;;;2.45;1.70;;;;;;;;;;10437955;28;20184;-75
2023/07/14 04:54:58;;;;;;;2.60;1.88;;;;;;;;;;10439386;28;20037;-74
2023/07/14 05:00:01;;;;;;;4.33;2.30;;;;;;;;;;10442886;28;20037;-76
2023/07/14 05:05:13;;;;;;;6.20;2.30;;;;;;;;;;10437069;28;20045;-76
2023/07/14 05:10:16;;;;;;;6.15;2.17;;;;;;;;;;10439491;28;20037;-75
2023/07/14 05:15:20;;;;;;;4.00;1.70;;;;;;;;;;10436526;28;20064;-75
2023/07/14 05:20:25;;;;;;;3.55;2.00;;;;;;;;;;10440129;28;21075;-75
2023/07/14 05:25:27;;;;;;;1.35;0.93;;;;;;;;;;10440836;28;20064;-76
2023/07/14 05:30:31;;;;;;;3.75;1.83;;;;;;;;;;10437041;28;20234;-77
2023/07/14 05:35:34;;;;;;;;;;;;;;;;;;10434160;28;20069;-75
2023/07/14 05:40:38;;;;;;;4.43;1.90;;;;;;;;;;10438535;28;20362;-76
2023/07/14 05:45:58;;;;;;;2.72;1.52;;;;;;;;;;10436129;28;20041;-75
2023/07/14 05:51:01;;;;;;;3.93;1.97;;;;;;;;;;10444623;28;20126;-76
2023/07/14 05:56:05;;;;;;;4.80;2.10;;;;;;;;;;10440846;28;20064;-76
2023/07/14 06:01:08;;;;;;;2.60;1.55;;;;;;;;;;10444380;28;20127;-76
2023/07/14 06:06:11;;;;;;;8.03;1.87;;;;;;;;;;10443219;28;20033;-77
2023/07/14 06:11:14;;;;;;;;;;;;;;;;;;10445287;28;20624;-74
2023/07/14 06:16:20;;;;;;;1.17;1.08;;;;;;;;;;10441194;28;19924;-76
2023/07/14 06:21:23;;;;;;;1.85;1.05;;;;;;;;;;10435528;28;20056;-76
2023/07/14 06:26:28;;;;;;;;;;;;;;;;;;10444259;28;20100;-73
2023/07/14 06:31:33;;;;;;;3.90;1.70;;;;;;;;;;10436089;28;19974;-75
2023/07/14 06:36:36;;;;;;;5.30;2.00;;;;;;;;;;10432737;28;20053;-75
2023/07/14 06:41:39;;;;;;;2.70;1.58;;;;;;;;;;10436041;28;20044;-75
2023/07/14 06:46:43;;;;;;;3.35;2.15;;;;;;;;;;10435654;28;20241;-74
2023/07/14 06:51:46;;;;;;;3.08;1.75;;;;;;;;;;10447373;28;20095;-73
2023/07/14 06:56:49;;;;;;;3.50;1.70;;;;;;;;;;10455198;28;20068;-74
2023/07/14 07:01:55;;;;;;;4.63;2.20;;;;;;;;;;10431116;28;20074;-76
2023/07/14 07:06:57;;;;;;;3.42;1.90;;;;;;;;;;10439409;28;20102;-75
2023/07/14 07:12:00;;;;;;;4.03;1.80;;;;;;;;;;10439286;28;20041;-75
2023/07/14 07:17:04;;;;;;;4.50;1.83;;;;;;;;;;10441264;28;20402;-75
2023/07/14 07:22:08;;;;;;;2.67;1.60;;;;;;;;;;10431754;28;20080;-75
2023/07/14 07:27:11;;;;;;;3.97;1.45;;;;;;;;;;10430395;28;20521;-74
2023/07/14 07:32:15;;;;;;;4.40;1.98;;;;;;;;;;10436847;28;20029;-75
2023/07/14 07:37:18;;;;;;;2.63;1.80;;;;;;;;;;10436295;28;20535;-75
2023/07/14 07:42:20;;;;;;;3.22;1.70;;;;;;;;;;10433020;28;20341;-75
2023/07/14 07:47:25;;;;;;;5.25;2.00;;;;;;;;;;10430771;28;20379;-75
2023/07/14 07:52:27;;;;;;;2.63;1.70;;;;;;;;;;10431111;28;20346;-75
2023/07/14 07:57:30;;;;;;;3.95;1.70;;;;;;;;;;10435042;28;20060;-75
2023/07/14 08:02:35;;;;;;;3.63;2.10;;;;;;;;;;10428037;28;20052;-73
2023/07/14 08:07:39;;;;;;;3.00;2.00;;;;;;;;;;10436673;28;20045;-76
2023/07/14 08:12:41;;;;;;;3.05;2.22;;;;;;;;;;10437833;28;20124;-73
2023/07/14 08:17:55;;;;;;;4.90;2.38;;;;;;;;;;10432547;28;20055;-74
2023/07/14 08:22:58;;;;;;;3.80;2.33;;;;;;;;;;10433281;28;20155;-75
2023/07/14 08:28:02;;;;;;;3.30;2.42;;;;;;;;;;10439323;28;20078;-75
2023/07/14 08:33:06;;;;;;;3.10;2.13;;;;;;;;;;10435923;28;20053;-75
2023/07/14 08:38:09;;;;;;;3.75;2.25;;;;;;;;;;10432175;28;20049;-75
2023/07/14 08:43:20;;;;;;;2.63;2.25;;;;;;;;;;10432744;28;20723;-74
2023/07/14 08:48:30;;;;;;;3.22;2.05;;;;;;;;;;10433718;28;20636;-75
2023/07/14 08:53:32;;;;;;;;;;;;;;;;;;10438642;28;20506;-74
2023/07/14 08:58:36;;;;;;;2.75;2.30;;;;;;;;;;10436004;28;20058;-75
2023/07/14 09:03:44;;;;;;;4.10;2.30;;;;;;;;;;10434067;28;20502;-76
2023/07/14 09:08:48;;;;;;;3.45;2.10;;;;;;;;;;10434488;28;20040;-75
2023/07/14 09:13:54;;;;;;;2.60;1.98;;;;;;;;;;10435229;28;20041;-75
2023/07/14 09:19:01;;;;;;;3.05;1.60;;;;;;;;;;10425859;28;20068;-75
2023/07/14 09:24:11;;;;;;;5.65;2.00;;;;;;;;;;10427593;28;20063;-75
2023/07/14 09:29:16;;;;;;;2.05;1.85;;;;;;;;;;10428440;28;20045;-75
2023/07/14 09:34:24;;;;;;;3.20;2.50;;;;;;;;;;10437659;28;20128;-75
2023/07/14 09:39:31;;;;;;;2.25;2.05;;;;;;;;;;10439255;28;20537;-75
2023/07/14 09:44:35;;;;;;;5.63;2.30;;;;;;;;;;10428528;28;20556;-75
2023/07/14 09:49:40;;;;;;;2.88;2.05;;;;;;;;;;10429488;28;20127;-74
2023/07/14 09:54:43;;;;;;;3.03;2.10;;;;;;;;;;10436902;28;20660;-75
2023/07/14 09:59:50;;;;;;;3.20;2.40;;;;;;;;;;10426256;28;20042;-76
2023/07/14 10:04:59;;;;;;;3.80;1.70;;;;;;;;;;10431459;28;20049;-74
2023/07/14 10:10:08;;;;;;;2.30;2.10;;;;;;;;;;10427530;28;20472;-75
2023/07/14 10:15:30;;;;;;;2.15;1.73;;;;;;;;;;10429328;28;20053;-75
2023/07/14 10:20:35;;;;;;;3.78;2.00;;;;;;;;;;10431612;28;20065;-75
2023/07/14 10:25:37;;;;;;;2.30;2.10;;;;;;;;;;10426130;28;20049;-75
2023/07/14 10:30:47;;;;;;;3.88;2.08;;;;;;;;;;10429653;28;20399;-75
2023/07/14 10:35:49;;;;;;;;;;;;;;;;;;10439897;28;20056;-75
2023/07/14 10:40:57;;;;;;;3.30;1.90;;;;;;;;;;10443461;28;19955;-75
2023/07/14 10:46:01;;;;;;;3.38;2.30;;;;;;;;;;10438836;28;20132;-75
2023/07/14 10:51:07;;;;;;;2.58;2.17;;;;;;;;;;10438877;28;20072;-75
2023/07/14 10:56:22;;;;;;;2.58;2.10;;;;;;;;;;10438504;28;20037;-75
2023/07/14 11:01:32;;;;;;;1.48;1.35;;;;;;;;;;10431189;28;20518;-75
2023/07/14 11:06:35;;;;;;;1.88;1.73;;;;;;;;;;10420414;28;20452;-76
2023/07/14 11:11:43;;;;;;;2.58;2.13;;;;;;;;;;10412138;28;20067;-75
2023/07/14 11:16:50;;;;;;;2.55;2.03;;;;;;;;;;10431774;28;20059;-75
2023/07/14 11:21:56;;;;;;;1.85;1.70;;;;;;;;;;10441383;28;20498;-76
2023/07/14 11:27:28;;;;;;;2.03;1.85;;;;;;;;;;10426964;28;20647;-76
2023/07/14 11:32:37;;;;;;;3.08;1.88;;;;;;;;;;10433664;28;20041;-76
2023/07/14 11:37:45;;;;;;;2.70;2.10;;;;;;;;;;10446858;28;20055;-76
2023/07/14 11:42:52;;;;;;;4.40;2.08;;;;;;;;;;10435158;28;20045;-76
2023/07/14 11:47:56;;;;;;;2.70;2.20;;;;;;;;;;10432608;28;20110;-76
2023/07/14 11:53:01;;;;;;;3.53;2.30;;;;;;;;;;10427808;28;20386;-76
2023/07/14 11:58:11;;;;;;;2.40;1.80;;;;;;;;;;10438050;28;20037;-75
2023/07/14 12:03:24;;;;;;;1.90;1.63;;;;;;;;;;10430303;28;20060;-75
2023/07/14 12:08:38;;;;;;;2.13;1.70;;;;;;;;;;10436806;28;20056;-76
2023/07/14 12:13:51;;;;;;;2.88;1.50;;;;;;;;;;10436163;28;20077;-75
2023/07/14 12:19:11;;;;;;;4.38;1.70;;;;;;;;;;10435759;28;20498;-75
2023/07/14 12:24:16;;;;;;;3.20;1.65;;;;;;;;;;10426784;28;20060;-75
2023/07/14 12:29:21;;;;;;;2.55;1.90;;;;;;;;;;10432534;28;20052;-75
2023/07/14 12:34:28;;;;;;;3.80;1.70;;;;;;;;;;10439946;28;20059;-75
2023/07/14 12:39:31;;;;;;;2.17;1.50;;;;;;;;;;10440881;28;20122;-75
2023/07/14 12:44:38;;;;;;;1.90;1.60;;;;;;;;;;10440595;28;20067;-76
2023/07/14 12:49:45;;;;;;;1.88;1.70;;;;;;;;;;10431211;28;20124;-76
2023/07/14 12:54:48;;;;;;;2.72;1.70;;;;;;;;;;10472056;28;20128;-76
2023/07/14 12:59:53;;;;;;;1.73;1.60;;;;;;;;;;10478946;28;20051;-76
2023/07/14 13:04:56;;;;;;;2.67;1.77;;;;;;;;;;10474596;28;20513;-75
2023/07/14 13:10:01;;;;;;;2.97;1.58;;;;;;;;;;10475595;28;20079;-77
2023/07/14 13:15:05;;;;;;;2.55;1.67;;;;;;;;;;10465680;28;20473;-76
2023/07/14 13:20:10;;;;;;;2.55;1.73;;;;;;;;;;10476515;28;20107;-76
2023/07/14 13:25:18;;;;;;;2.38;1.50;;;;;;;;;;10483703;28;20123;-76
2023/07/14 13:30:29;;;;;;;2.22;1.33;;;;;;;;;;10473546;28;20102;-75
2023/07/14 13:35:32;;;;;;;2.58;1.42;;;;;;;;;;10476486;28;20542;-76
2023/07/14 13:40:38;;;;;;;1.75;1.40;;;;;;;;;;10484591;28;20054;-76
2023/07/14 13:45:44;;;;;;;1.88;1.50;;;;;;;;;;10474497;28;20124;-76
2023/07/14 13:50:47;;;;;;;2.20;1.60;;;;;;;;;;10477180;28;20502;-73
2023/07/14 13:55:50;;;;;;;3.35;1.75;;;;;;;;;;10467639;28;20612;-76
2023/07/14 14:00:55;;;;;;;2.50;1.58;;;;;;;;;;10473628;28;20749;-74
2023/07/14 14:05:57;;;;;;;2.47;1.70;;;;;;;;;;10473956;28;20110;-74
2023/07/14 14:11:01;;;;;;;3.65;1.58;;;;;;;;;;10486471;28;20093;-74
2023/07/14 14:16:07;;;;;;;2.25;1.60;;;;;;;;;;10484074;28;20047;-74
2023/07/14 14:21:11;;;;;;;5.47;1.75;;;;;;;;;;10483973;28;20048;-75
2023/07/14 14:26:15;;;;;;;3.20;1.58;;;;;;;;;;10478762;28;20036;-75
2023/07/14 14:31:20;;;;;;;4.13;2.35;;;;;;;;;;10485085;28;20044;-75
2023/07/14 14:36:23;;;;;;;6.78;1.90;;;;;;;;;;10476490;28;20044;-75
2023/07/14 14:41:27;;;;;;;3.20;1.52;;;;;;;;;;10483258;28;20563;-75
2023/07/14 14:46:32;;;;;;;2.67;1.55;;;;;;;;;;10473399;28;20118;-75
2023/07/14 14:51:37;;;;;;;4.32;1.77;;;;;;;;;;10477564;28;20052;-75
2023/07/14 14:56:41;;;;;;;2.45;1.58;;;;;;;;;;10468798;28;20131;-74
2023/07/14 15:01:46;;;;;;;2.72;1.90;;;;;;;;;;10480153;28;20036;-75
2023/07/14 15:06:49;;;;;;;3.08;1.70;;;;;;;;;;10475841;28;20041;-75
2023/07/14 15:11:55;;;;;;;3.25;1.73;;;;;;;;;;10477862;28;20090;-74
2023/07/14 15:17:00;;;;;;;2.80;1.80;;;;;;;;;;10481882;28;20457;-75
2023/07/14 15:22:08;;;;;;;1.85;1.60;;;;;;;;;;10484349;28;20079;-75
2023/07/14 15:27:13;;;;;;;5.60;2.00;;;;;;;;;;10481982;28;20049;-75
2023/07/14 15:32:17;;;;;;;2.95;1.63;;;;;;;;;;10490197;28;20051;-76
2023/07/14 15:37:20;;;;;;;1.98;1.50;;;;;;;;;;10477747;28;20090;-76
2023/07/14 15:42:23;;;;;;;1.95;1.52;;;;;;;;;;10463352;28;20047;-75
2023/07/14 15:47:27;;;;;;;2.83;1.58;;;;;;;;;;10476195;28;20037;-76
2023/07/14 15:52:30;;;;;;;2.17;1.60;;;;;;;;;;10478850;28;20048;-75
2023/07/14 15:57:34;;;;;;;2.25;1.50;;;;;;;;;;10484957;28;20794;-76
2023/07/14 16:02:38;;;;;;;5.07;1.75;;;;;;;;;;10480177;28;20056;-76
2023/07/14 16:07:41;;;;;;;2.80;1.60;;;;;;;;;;10458413;28;20123;-87
2023/07/14 16:12:44;;;;;;;4.50;1.85;;;;;;;;;;10485657;28;20110;-76
2023/07/14 16:17:48;;;;;;;3.45;1.75;;;;;;;;;;10475171;28;20421;-76
2023/07/14 16:22:52;;;;;;;3.08;1.83;;;;;;;;;;10470048;28;20060;-76
2023/07/14 16:27:55;;;;;;;2.50;1.33;;;;;;;;;;10475112;28;20098;-76
2023/07/14 16:32:59;;;;;;;2.42;1.60;;;;;;;;;;10473274;28;20041;-74
2023/07/14 16:38:03;;;;;;;2.13;1.60;;;;;;;;;;10477824;28;20045;-75
2023/07/14 16:43:11;;;;;;;4.20;1.90;;;;;;;;;;10481778;28;20494;-74
2023/07/14 16:48:18;;;;;;;3.22;1.80;;;;;;;;;;10474519;28;20047;-75
2023/07/14 16:53:20;;;;;;;4.22;1.80;;;;;;;;;;10497589;28;20529;-75
2023/07/14 16:58:25;;;;;;;2.88;2.00;;;;;;;;;;10476892;28;20032;-75
2023/07/14 17:03:30;;;;;;;2.30;1.67;;;;;;;;;;10476734;28;20040;-75
2023/07/14 17:08:34;;;;;;;2.80;1.73;;;;;;;;;;10474795;28;20037;-75
2023/07/14 17:13:39;;;;;;;3.78;1.92;;;;;;;;;;10475696;28;20067;-75
2023/07/14 17:18:43;;;;;;;3.03;2.00;;;;;;;;;;10483594;28;20045;-74
2023/07/14 17:23:48;;;;;;;4.18;1.80;;;;;;;;;;10466453;28;20047;-74
2023/07/14 17:28:51;;;;;;;4.00;2.63;;;;;;;;;;10480277;28;20100;-74
2023/07/14 17:33:55;;;;;;;4.20;2.00;;;;;;;;;;10484209;28;20055;-73
2023/07/14 17:38:58;;;;;;;3.55;2.00;;;;;;;;;;10469952;28;20093;-74
2023/07/14 17:44:02;;;;;;;3.83;2.00;;;;;;;;;;10486902;28;20051;-75
2023/07/14 17:49:06;;;;;;;3.53;1.75;;;;;;;;;;10495379;28;20092;-74
2023/07/14 17:54:17;;;;;;;3.33;2.10;;;;;;;;;;10488684;28;20045;-74
2023/07/14 17:59:20;;;;;;;2.03;1.70;;;;;;;;;;10479885;28;20033;-74
2023/07/14 18:04:25;;;;;;;3.65;2.15;;;;;;;;;;10488206;28;20076;-75
2023/07/14 18:09:28;;;;;;;4.00;2.38;;;;;;;;;;10485613;28;20060;-74
2023/07/14 18:14:31;;;;;;;4.03;2.05;;;;;;;;;;10480782;28;20043;-74
2023/07/14 18:19:33;;;;;;;;;;;;;;;;;;10486687;28;20440;-74
2023/07/14 18:24:37;;;;;;;5.22;2.30;;;;;;;;;;10487794;28;19925;-74
2023/07/14 18:29:46;;;;;;;8.25;2.53;;;;;;;;;;10487276;28;20068;-73
2023/07/14 18:34:48;;;;;;;4.88;2.55;;;;;;;;;;10491764;28;20465;-75
2023/07/14 18:39:53;;;;;;;5.90;3.13;;;;;;;;;;10483382;28;20037;-74
2023/07/14 18:44:55;;;;;;;5.03;2.75;;;;;;;;;;10488492;28;20123;-75
2023/07/14 18:49:58;;;;;;;5.90;2.50;;;;;;;;;;10478255;28;20048;-74
2023/07/14 18:55:00;;;;;;;;;;;;;;;;;;10489565;28;20037;-74
2023/07/14 19:00:08;;;;;;;5.13;3.00;;;;;;;;;;10477905;28;19931;-74
2023/07/14 19:05:12;;;;;;;5.07;2.67;;;;;;;;;;10479381;28;20051;-75
2023/07/14 19:10:15;;;;;;;4.32;2.63;;;;;;;;;;10482273;28;20044;-75
2023/07/14 19:15:21;;;;;;;3.42;2.30;;;;;;;;;;10483895;28;20037;-74
2023/07/14 19:20:24;;;;;;;5.13;2.85;;;;;;;;;;10484328;28;20127;-74
2023/07/14 19:25:26;;;;;;;8.10;3.80;;;;;;;;;;10483233;28;20037;-74
2023/07/14 19:30:34;;;;;;;7.35;2.80;;;;;;;;;;10479835;28;20047;-76
2023/07/14 19:35:37;;;;;;;5.35;3.30;;;;;;;;;;10481924;28;20087;-76
2023/07/14 19:40:40;;;;;;;8.65;3.97;;;;;;;;;;10475376;28;20120;-75
2023/07/14 19:45:42;;;;;;;;;;;;;;;;;;10477203;28;20087;-75
2023/07/14 19:50:48;;;;;;;9.67;4.50;;;;;;;;;;10479928;28;19930;-76
2023/07/14 19:55:51;;;;;;;7.70;3.90;;;;;;;;;;10473475;28;20048;-75
2023/07/14 20:00:55;;;;;;;6.00;3.90;;;;;;;;;;10490756;28;20058;-75
2023/07/14 20:06:01;;;;;;;11.00;5.80;;;;;;;;;;10480496;28;20052;-75
2023/07/14 20:11:04;;;;;;;8.45;4.15;;;;;;;;;;10482962;28;20199;-75
2023/07/14 20:16:12;;;;;;;6.53;3.83;;;;;;;;;;10478657;28;20524;-75
2023/07/14 20:21:18;;;;;;;7.57;4.15;;;;;;;;;;10476274;28;20049;-75
2023/07/14 20:26:21;;;;;;;10.30;4.30;;;;;;;;;;10474559;28;20124;-75
2023/07/14 20:31:25;;;;;;;10.50;5.32;;;;;;;;;;10476077;28;20371;-75
2023/07/14 20:36:29;;;;;;;8.30;4.15;;;;;;;;;;10472980;28;20036;-76
2023/07/14 20:41:32;;;;;;;9.60;4.47;;;;;;;;;;10473305;28;20044;-75
2023/07/14 20:46:38;;;;;;;6.65;3.95;;;;;;;;;;10475907;28;20083;-75
2023/07/14 20:51:42;;;;;;;11.05;4.45;;;;;;;;;;10494291;28;20109;-75
2023/07/14 20:56:45;;;;;;;7.72;4.40;;;;;;;;;;10485458;28;20122;-75
2023/07/14 21:01:48;;;;;;;6.97;3.45;;;;;;;;;;10478522;28;20113;-74
2023/07/14 21:06:51;;;;;;;;;;;;;;;;;;10492585;28;20936;-74
2023/07/14 21:11:55;;;;;;;10.63;4.97;;;;;;;;;;10479646;28;19938;-75
2023/07/14 21:16:57;;;;;;;8.63;4.22;;;;;;;;;;10499123;28;20510;-74
2023/07/14 21:22:00;;;;;;;8.57;5.15;;;;;;;;;;10477639;28;20132;-76
2023/07/14 21:27:05;;;;;;;9.27;4.03;;;;;;;;;;10469270;28;20039;-75
2023/07/14 21:32:21;;;;;;;10.73;4.93;;;;;;;;;;10472822;28;20057;-75
2023/07/14 21:37:23;;;;;;;10.73;4.80;;;;;;;;;;10480208;28;20042;-75
2023/07/14 21:42:28;;;;;;;8.88;4.82;;;;;;;;;;10477580;28;20127;-75
2023/07/14 21:47:30;;;;;;;7.80;3.67;;;;;;;;;;10473898;28;20090;-74
2023/07/14 21:52:33;;;;;;;7.72;4.57;;;;;;;;;;10484180;28;20052;-75
2023/07/14 21:57:37;;;;;;;6.85;3.60;;;;;;;;;;10479359;28;20450;-76
2023/07/14 22:02:40;;;;;;;7.95;3.78;;;;;;;;;;10478137;28;20044;-75
2023/07/14 22:07:43;;;;;;;7.45;3.60;;;;;;;;;;10480450;28;20163;-76
2023/07/14 22:12:47;;;;;;;8.13;3.60;;;;;;;;;;10483412;28;20052;-76
2023/07/14 22:17:51;;;;;;;6.70;3.25;;;;;;;;;;10470738;28;20032;-77
2023/07/14 22:22:54;;;;;;;6.75;3.30;;;;;;;;;;10469197;28;20041;-77
2023/07/14 22:27:59;;;;;;;4.50;3.13;;;;;;;;;;10468224;28;20052;-77
2023/07/14 22:33:03;;;;;;;4.88;3.20;;;;;;;;;;10479334;28;20045;-79
2023/07/14 22:38:06;;;;;;;6.95;3.50;;;;;;;;;;10477720;28;20071;-77
2023/07/14 22:43:13;;;;;;;5.85;3.45;;;;;;;;;;10484939;28;20097;-78
2023/07/14 22:48:16;;;;;;;8.15;3.40;;;;;;;;;;10483631;28;20056;-77
2023/07/14 22:53:20;;;;;;;6.43;3.33;;;;;;;;;;10492420;28;20054;-77
2023/07/14 22:58:25;;;;;;;6.47;3.50;;;;;;;;;;10485101;28;20044;-76
2023/07/14 23:03:29;;;;;;;6.55;3.80;;;;;;;;;;10484006;28;20044;-76
2023/07/14 23:08:33;;;;;;;2.90;2.00;;;;;;;;;;10468449;28;20463;-77
2023/07/14 23:13:37;;;;;;;6.13;3.13;;;;;;;;;;10483895;28;21030;-76
2023/07/14 23:18:40;;;;;;;5.45;3.25;;;;;;;;;;10490721;28;20056;-77
2023/07/14 23:23:43;;;;;;;6.20;3.10;;;;;;;;;;10484368;28;20130;-77
2023/07/14 23:28:48;;;;;;;4.85;3.00;;;;;;;;;;10496607;28;20058;-77
2023/07/14 23:33:51;;;;;;;5.05;2.85;;;;;;;;;;10488106;28;20049;-77
2023/07/14 23:38:54;;;;;;;;;;;;;;;;;;10501605;28;20032;-76
2023/07/14 23:43:59;;;;;;;6.20;2.90;;;;;;;;;;10500923;28;19980;-78
2023/07/14 23:49:01;;;;;;;5.05;3.00;;;;;;;;;;10498801;28;20047;-77
2023/07/14 23:54:05;;;;;;;;;;;;;;;;;;10491805;28;20044;-77
2023/07/14 23:59:10;;;;;;;2.17;1.77;;;;;;;;;;10497865;28;19925;-77
